Terminal Aerodrome Forecast
Issued by NWS

Home | Current Version | Previous Version | Text Only | Print | Product List | Glossary Off
Versions: 1 2 3 4 5 6 7 8 9 10 11 12 13 14 15 16 17

000
FTUS43 KIWX 011100
TAFSBN
TAF
KSBN 011121Z 0112/0212 VRB03KT P6SM SCT015 OVC090
     FM011500 24005KT P6SM OVC020
     FM012100 26008KT P6SM SCT020=

USA.gov is the U.S. government's official web portal to all federal, state and local government web resources and services.